Pagrindinis puslapis
METAR-TAF:

METAR-TAF

Oro uostai :

Potosi, Bolivija

platuma: 19-33S, ilguma: 065-44W, Aukštis: 3935 m

Dabartinis oras

Ataskaita buvo paskelbta 27 minutes, ne 15:00 UTC
Vėjas 10 kt iš Rytų/Šiaurės Rytų
Temperatūra 12°C
Drėgmė 67%
Slėgis 1045 hPa
Matomumas 10 km arba daugiau
Išsisklaidę debesys ne aukštis 1500 ft
Išsisklaidę debesys ne aukštis 20000 ft

METAR: SLPO 261500Z 06010KT 9999 SCT015 SCT200 12/06 Q1045

Laikas: 11:27 (15:27 UTC)


TAF: trūkstamas

Orai ataskaitas ir orų prognozės (METAR, TAF).

turimą stotys yra geltonos ir raudonos taškus žemėlapyje.

Perkelti pele per norėdami pamatyti stoties vardą.

Tada spustelėkite, norėdami matyti oro stebėjimo ir prognozės.

Norėdami pakeisti žemėlapį: spustelėkite ant žalios mygtukų su juodo kryžiaus žemyn,; žalią mygtuką su brūkšneliu, jei norite nutolinti; arba žalių rodyklių gretimoms žemėlapius.


METAR-TAF: